Latest Coastal Weather Observations for Frederick Reef

IDQ60701

Issued at 2:45 am EST Wednesday 22 October 2014 (issued every 10 minutes, with the page automatically refreshed every 10 minutes)

About coastal observations | Map of coastal stations | Coastal observations for QLD | Marine services | Other Formats
Station Details ID: 200701 Name: FREDERICK REEF Lat: -20.94 Lon: 154.40 Height: 4.9 m
Data from the previous 72 hours. | See also: Recent months for locations in Queensland
Date/Time
EST
Temp

°C
Wind Pressure Rain
since 9am
mm
Weather Cloud Vis
km
Sea
Height
m
Swell
Dir
 
Speed
knots
Gust
knots
hPa Trend Height
m
Period
s
Dir
22/02:30am 22.0 SE 21 24 1019.1 - - - - - - - - -
22/02:00am 22.2 SE 21 24 1019.3 - - - - - - - - -
22/01:30am 22.3 SE 22 25 1019.4 - - - - - - - - -
22/01:00am 22.0 SSE 20 24 1019.9 - - - - - - - - -
22/12:30am 22.0 SE 21 24 1020.2 - - - - - - - - -
22/12:00am 22.3 SE 20 22 1020.5 - - - - - - - - -
 
Date/Time
EST
Temp

°C
Wind Pressure Rain
since 9am
mm
Weather Cloud Vis
km
Sea
Height
m
Swell
Dir
 
Speed
knots
Gust
knots
hPa Trend Height
m
Period
s
Dir
21/11:30pm 22.2 SE 22 25 1020.9 - - - - - - - - -
21/11:00pm 22.3 SE 24 26 1021.1 - - - - - - - - -
21/10:30pm 22.1 SE 22 25 1021.5 - - - - - - - - -
21/10:00pm 22.2 ESE 22 25 1021.6 - - - - - - - - -
21/09:30pm 22.2 SE 22 25 1021.7 - - - - - - - - -
21/09:00pm 22.3 SE 24 26 1021.7 - - - - - - - - -
21/08:30pm 22.3 ESE 25 27 1021.5 - - - - - - - - -
21/08:00pm 22.5 SE 25 28 1021.3 - - - - - - - - -
21/07:30pm 22.5 ESE 26 30 1021.1 - - - - - - - - -
21/07:00pm 22.2 ESE 23 27 1020.9 - - - - - - - - -
21/06:30pm 22.4 ESE 25 28 1020.5 - - - - - - - - -
21/06:00pm 22.4 SE 23 27 1020.2 - - - - - - - - -
21/05:30pm 22.6 SE 23 27 1020.0 - - - - - - - - -
21/05:00pm 22.6 SE 22 24 1019.7 - - - - - - - - -
21/04:30pm 22.5 SE 23 26 1019.2 - - - - - - - - -
21/04:00pm 22.6 SE 23 25 1019.0 - - - - - - - - -
21/03:30pm 22.5 SE 23 27 1018.9 - - - - - - - - -
21/03:00pm 22.4 SE 25 28 1018.9 - - - - - - - - -
21/02:30pm 22.4 SE 25 29 1018.9 - - - - - - - - -
21/02:00pm 22.4 SE 26 29 1019.0 - - - - - - - - -
21/01:30pm 22.5 SE 25 28 1019.4 - - - - - - - - -
21/01:00pm 22.4 SE 25 31 1019.5 - - - - - - - - -
21/12:30pm 22.5 SE 25 29 1019.8 - - - - - - - - -
21/12:00pm 22.5 SE 25 29 1020.2 - - - - - - - - -
21/11:30am 22.5 SE 25 27 1020.6 - - - - - - - - -
21/11:00am 22.6 ESE 23 27 1021.1 - - - - - - - - -
21/10:30am 22.6 SE 23 25 1021.4 - - - - - - - - -
21/10:00am 22.5 SE 24 26 1021.5 - - - - - - - - -
21/09:30am 22.8 SE 24 28 1021.7 - - - - - - - - -
21/09:00am 22.7 SE 25 28 1021.3 - - - - - - - - -
21/08:30am 22.4 SE 25 27 1021.0 - - - - - - - - -
21/08:00am 22.2 SE 26 29 1020.6 - - - - - - - - -
21/07:30am 22.4 SE 25 28 1020.5 - - - - - - - - -
21/07:00am 22.7 SE 24 27 1020.3 - - - - - - - - -
21/06:30am 22.5 SE 24 28 1019.9 - - - - - - - - -
21/06:00am 22.3 SE 25 28 1019.6 - - - - - - - - -
21/05:30am 22.2 SE 24 29 1019.4 - - - - - - - - -
21/05:00am 22.1 SE 26 29 1019.3 - - - - - - - - -
21/04:30am 22.1 SE 24 28 1019.0 - - - - - - - - -
21/04:00am 22.3 SE 23 26 1019.2 - - - - - - - - -
21/03:30am 22.1 SE 24 29 1019.0 - - - - - - - - -
21/03:00am 22.0 SE 23 27 1018.9 - - - - - - - - -
21/02:30am 22.0 SE 24 27 1018.9 - - - - - - - - -
21/02:00am 21.8 SE 22 25 1019.2 - - - - - - - - -
21/01:30am 22.1 SE 23 26 1019.6 - - - - - - - - -
21/01:00am 22.2 SE 23 26 1020.0 - - - - - - - - -
21/12:30am 22.1 SE 24 27 1020.3 - - - - - - - - -
21/12:00am 22.5 SE 23 25 1020.4 - - - - - - - - -
 
Date/Time
EST
Temp

°C
Wind Pressure Rain
since 9am
mm
Weather Cloud Vis
km
Sea
Height
m
Swell
Dir
 
Speed
knots
Gust
knots
hPa Trend Height
m
Period
s
Dir
20/11:30pm 22.4 SE 23 26 1020.7 - - - - - - - - -
20/11:00pm 22.3 SE 23 25 1021.1 - - - - - - - - -
20/10:30pm 22.2 SE 23 26 1021.1 - - - - - - - - -
20/10:00pm 22.0 SE 22 24 1021.3 - - - - - - - - -
20/09:30pm 22.4 SE 24 28 1021.3 - - - - - - - - -
20/09:00pm 22.3 SE 22 27 1021.1 - - - - - - - - -
20/08:30pm 22.4 ESE 24 27 1020.7 - - - - - - - - -
20/08:00pm 22.3 ESE 24 28 1020.5 - - - - - - - - -
20/07:30pm 22.4 ESE 25 28 1020.3 - - - - - - - - -
20/07:00pm 22.5 ESE 23 28 1020.2 - - - - - - - - -
20/06:30pm 22.4 ESE 22 27 1019.9 - - - - - - - - -
20/06:00pm 22.4 SE 22 26 1019.5 - - - - - - - - -
20/05:30pm 22.4 SE 23 26 1019.0 - - - - - - - - -
20/05:00pm 22.5 SE 23 25 1018.8 - - - - - - - - -
20/04:30pm 22.3 SE 24 27 1018.2 - - - - - - - - -
20/04:00pm 22.5 SE 22 25 1018.2 - - - - - - - - -
20/03:30pm 22.4 SE 22 25 1018.4 - - - - - - - - -
20/03:00pm 22.3 SE 23 27 1018.3 - - - - - - - - -
20/02:30pm 22.3 SE 23 27 1018.2 - - - - - - - - -
20/02:00pm 22.3 SE 23 25 1018.5 - - - - - - - - -
20/01:30pm 22.2 SE 23 27 1018.7 - - - - - - - - -
20/01:00pm 22.3 SE 22 24 1019.0 - - - - - - - - -
20/12:30pm 22.3 SE 20 23 1019.3 - - - - - - - - -
20/12:00pm 22.3 SE 20 23 1019.9 - - - - - - - - -
20/11:30am 22.3 SE 21 23 1020.4 - - - - - - - - -
20/11:00am 22.2 SE 20 23 1020.6 - - - - - - - - -
20/10:30am 22.2 SE 20 23 1021.1 - - - - - - - - -
20/10:00am 22.2 SE 20 23 1021.5 - - - - - - - - -
20/09:30am 22.3 SE 21 23 1021.5 - - - - - - - - -
20/09:00am 22.3 SE 21 23 1021.5 - - - - - - - - -
20/08:30am 22.3 SE 20 23 1021.7 - - - - - - - - -
20/08:00am 22.4 ESE 19 22 1021.7 - - - - - - - - -
20/07:30am 22.1 SE 21 24 1021.4 - - - - - - - - -
20/07:00am 22.1 SE 22 25 1021.0 - - - - - - - - -
20/06:30am 22.1 SE 22 25 1020.7 - - - - - - - - -
20/06:00am 22.0 SE 21 23 1020.5 - - - - - - - - -
20/05:30am 21.9 SE 22 25 1020.1 - - - - - - - - -
20/05:00am 21.8 SE 22 25 1019.7 - - - - - - - - -
20/04:30am 21.8 SE 22 25 1019.4 - - - - - - - - -
20/04:00am 21.7 SE 21 24 1019.5 - - - - - - - - -
20/03:30am 21.9 SE 22 26 1019.2 - - - - - - - - -
20/03:00am 21.9 SE 22 25 1019.3 - - - - - - - - -
20/02:30am 22.1 SE 22 25 1019.5 - - - - - - - - -
20/02:00am 22.4 SE 24 26 1019.4 - - - - - - - - -
20/01:30am 22.1 SE 23 27 1019.5 - - - - - - - - -
20/01:00am 22.2 SE 23 27 1019.8 - - - - - - - - -
20/12:30am 22.4 SE 25 28 1020.2 - - - - - - - - -
20/12:00am 22.1 SE 25 28 1020.7 - - - - - - - - -
 
Date/Time
EST
Temp

°C
Wind Pressure Rain
since 9am
mm
Weather Cloud Vis
km
Sea
Height
m
Swell
Dir
 
Speed
knots
Gust
knots
hPa Trend Height
m
Period
s
Dir
19/11:30pm 22.3 SE 24 28 1020.9 - - - - - - - - -
19/11:00pm 22.2 SE 26 31 1021.1 - - - - - - - - -
19/10:30pm 22.5 SE 25 29 1021.4 - - - - - - - - -
19/10:00pm 22.5 SE 27 30 1021.3 - - - - - - - - -
19/09:30pm 22.5 SE 25 29 1021.4 - - - - - - - - -
19/09:00pm 22.4 SE 26 30 1021.4 - - - - - - - - -
19/08:30pm 22.6 SE 26 29 1021.3 - - - - - - - - -
19/08:00pm 22.5 SE 26 29 1020.9 - - - - - - - - -
19/07:30pm 22.5 SE 25 28 1021.0 - - - - - - - - -
19/07:00pm 22.5 SE 26 29 1020.7 - - - - - - - - -
19/06:30pm 22.4 SE 26 30 1020.5 - - - - - - - - -
19/06:00pm 22.7 SE 27 32 1020.4 - - - - - - - - -
19/05:30pm 22.8 SE 27 31 1019.9 - - - - - - - - -
19/05:00pm 22.7 SE 26 31 1019.5 - - - - - - - - -
19/04:30pm 22.7 SE 28 33 1019.3 - - - - - - - - -
19/04:00pm 22.7 SE 28 31 1019.0 - - - - - - - - -
19/03:30pm 22.6 SE 28 32 1018.9 - - - - - - - - -
19/03:00pm 22.9 SE 27 31 1018.9 - - - - - - - - -
19/02:30pm 22.6 SE 28 32 1018.9 - - - - - - - - -
19/02:00pm 22.8 SE 29 32 1018.9 - - - - - - - - -
19/01:30pm 22.7 ESE 27 32 1019.1 - - - - - - - - -
19/01:00pm 22.5 ESE 27 31 1019.5 - - - - - - - - -
19/12:30pm 22.4 SE 27 32 1019.8 - - - - - - - - -
19/12:00pm 22.4 SE 28 32 1020.0 - - - - - - - - -
19/11:30am 22.6 SE 29 33 1020.5 - - - - - - - - -
19/11:00am 22.4 ESE 29 32 1020.8 - - - - - - - - -
19/10:30am 22.5 SE 28 32 1020.8 - - - - - - - - -
19/10:00am 22.6 SE 29 33 1021.0 - - - - - - - - -
19/09:30am 22.6 SE 28 31 1021.2 - - - - - - - - -
19/09:00am 22.5 SE 29 33 1021.3 - - - - - - - - -
19/08:30am 22.5 SE 28 32 1021.3 - - - - - - - - -
19/08:00am 22.3 SE 29 32 1021.2 - - - - - - - - -
19/07:30am 22.6 SE 28 32 1021.1 - - - - - - - - -
19/07:00am 22.4 SE 27 30 1020.8 - - - - - - - - -
19/06:30am 22.4 SE 28 32 1020.3 - - - - - - - - -
19/06:00am 22.6 SE 28 32 1020.0 - - - - - - - - -
19/05:30am 22.7 SE 29 31 1019.7 - - - - - - - - -
19/05:00am 21.9 SE 26 30 1019.5 - - - - - - - - -
19/04:30am 22.0 SE 26 31 1019.2 - - - - - - - - -
19/04:00am 22.5 SE 27 30 1019.1 - - - - - - - - -
19/03:30am 22.1 SE 26 30 1019.0 - - - - - - - - -
19/03:00am 22.1 SE 27 31 1018.7 - - - - - - - - -

Other Formats:

Comma delimited format used in spreadsheet applications
http://www.bom.gov.au/fwo/IDQ60701/IDQ60701.94393.axf

JavaScript Object Notation format (JSON) in row-major order
http://www.bom.gov.au/fwo/IDQ60701/IDQ60701.94393.json